createdAt,value
2022-11-19T00:02:27.450Z,8.83
2022-11-19T00:04:55.946Z,8.78
2022-11-19T00:07:24.276Z,8.78
2022-11-19T00:09:52.505Z,8.74
2022-11-19T00:12:38.401Z,8.77
2022-11-19T00:15:07.789Z,8.73
2022-11-19T00:17:37.336Z,8.72
2022-11-19T00:20:06.085Z,8.79
2022-11-19T00:22:34.295Z,8.68
2022-11-19T00:25:02.790Z,8.70
2022-11-19T00:27:32.178Z,8.74
2022-11-19T00:30:00.568Z,8.68
2022-11-19T00:32:29.187Z,8.68
2022-11-19T00:34:59.051Z,8.66
2022-11-19T00:37:27.267Z,8.59
2022-11-19T00:39:55.534Z,8.56
2022-11-19T00:42:23.992Z,8.64
2022-11-19T00:44:52.479Z,8.58
2022-11-19T00:47:20.798Z,8.63
2022-11-19T00:49:49.009Z,8.63
2022-11-19T00:52:18.987Z,8.64
2022-11-19T00:54:47.174Z,8.66
2022-11-19T00:57:15.389Z,8.66
2022-11-19T00:59:43.586Z,8.64
2022-11-19T01:02:11.825Z,8.63
2022-11-19T01:04:40.108Z,8.66
2022-11-19T01:07:08.355Z,8.67
2022-11-19T01:09:37.990Z,8.67
2022-11-19T01:12:06.689Z,8.71
2022-11-19T01:14:34.844Z,8.75
2022-11-19T01:17:03.153Z,8.79
2022-11-19T01:19:31.461Z,8.77
2022-11-19T01:21:59.794Z,8.76
2022-11-19T01:24:27.946Z,8.74
2022-11-19T01:26:57.588Z,8.77
2022-11-19T01:29:25.766Z,8.71
2022-11-19T01:31:53.904Z,8.73
2022-11-19T01:34:22.089Z,8.74
2022-11-19T01:36:50.177Z,8.57
2022-11-19T01:39:19.833Z,8.59
2022-11-19T01:41:48.101Z,8.65
2022-11-19T01:45:01.669Z,8.71
2022-11-19T01:47:31.204Z,8.60
2022-11-19T01:50:00.426Z,8.59
2022-11-19T01:52:28.813Z,8.57
2022-11-19T01:54:57.132Z,8.57
2022-11-19T01:57:25.343Z,8.56
2022-11-19T01:59:53.968Z,8.58
2022-11-19T02:02:23.686Z,8.56
2022-11-19T02:04:57.187Z,8.59
2022-11-19T02:07:29.460Z,8.60
2022-11-19T02:09:58.975Z,8.64
2022-11-19T02:12:37.860Z,8.53
2022-11-19T02:15:26.642Z,8.53
2022-11-19T02:18:35.227Z,8.53
2022-11-19T02:21:18.640Z,8.58
2022-11-19T02:24:01.754Z,8.60
2022-11-19T02:27:18.881Z,8.56
2022-11-19T02:30:06.499Z,8.59
2022-11-19T02:32:37.896Z,8.50
2022-11-19T02:35:14.550Z,8.47
2022-11-19T02:37:46.238Z,8.42
2022-11-19T02:40:21.024Z,8.37
2022-11-19T02:43:00.253Z,8.39
2022-11-19T02:45:34.333Z,8.36
2022-11-19T02:48:07.589Z,8.36
2022-11-19T02:50:39.346Z,8.36
2022-11-19T02:53:07.664Z,8.32
2022-11-19T02:55:37.664Z,8.34
2022-11-19T02:58:10.463Z,8.29
2022-11-19T03:01:03.244Z,8.29
2022-11-19T03:03:49.881Z,8.20
2022-11-19T03:06:21.710Z,8.20
2022-11-19T03:08:53.304Z,8.19
2022-11-19T03:11:23.961Z,8.17
2022-11-19T03:14:22.961Z,8.11
2022-11-19T03:16:58.849Z,8.14
2022-11-19T03:19:35.141Z,8.14
2022-11-19T03:22:11.900Z,8.14
2022-11-19T03:24:45.509Z,8.14
2022-11-19T03:27:17.741Z,8.11
2022-11-19T03:29:55.682Z,8.11
2022-11-19T03:32:38.662Z,8.13
2022-11-19T03:35:12.638Z,8.19
2022-11-19T03:37:43.312Z,8.17
2022-11-19T03:40:16.372Z,8.16
2022-11-19T03:42:47.093Z,8.14
2022-11-19T03:45:19.675Z,8.18
2022-11-19T03:47:51.071Z,8.21
2022-11-19T03:50:26.117Z,8.19
2022-11-19T03:53:02.757Z,8.20
2022-11-19T03:55:36.631Z,8.18
2022-11-19T03:58:06.352Z,8.18
2022-11-19T04:00:34.891Z,8.15
2022-11-19T04:03:08.710Z,8.14
2022-11-19T04:05:36.904Z,8.07
2022-11-19T04:08:11.284Z,8.07
2022-11-19T04:10:39.473Z,8.02
2022-11-19T04:13:10.694Z,7.98
2022-11-19T04:15:41.660Z,8.00
2022-11-19T04:18:12.258Z,8.02
2022-11-19T04:20:40.439Z,7.98
2022-11-19T04:23:08.588Z,8.00
2022-11-19T04:25:40.389Z,8.03
2022-11-19T04:28:12.130Z,8.04
2022-11-19T04:30:44.704Z,8.02
2022-11-19T04:33:17.696Z,8.04
2022-11-19T04:35:49.196Z,8.05
2022-11-19T04:38:17.545Z,8.06
2022-11-19T04:40:48.663Z,8.08
2022-11-19T04:43:16.809Z,8.09
2022-11-19T04:45:45.511Z,8.13
2022-11-19T04:48:15.534Z,8.07
2022-11-19T04:50:45.985Z,8.09
2022-11-19T04:53:14.173Z,8.14
2022-11-19T04:55:42.806Z,8.23
2022-11-19T04:58:13.233Z,8.24
2022-11-19T05:00:44.635Z,8.35
2022-11-19T05:03:14.437Z,8.32
2022-11-19T05:05:43.081Z,8.29
2022-11-19T05:08:11.318Z,8.34
2022-11-19T05:10:41.168Z,8.33
2022-11-19T05:13:10.095Z,8.33
2022-11-19T05:15:39.471Z,8.33
2022-11-19T05:18:07.659Z,8.33
2022-11-19T05:20:39.922Z,8.31
2022-11-19T05:23:08.773Z,8.29
2022-11-19T05:25:38.797Z,8.24
2022-11-19T05:28:08.268Z,8.21
2022-11-19T05:30:36.529Z,8.24
2022-11-19T05:33:05.291Z,8.24
2022-11-19T05:35:33.522Z,8.31
2022-11-19T05:38:03.537Z,8.31
2022-11-19T05:40:31.676Z,8.32
2022-11-19T05:43:08.533Z,8.28
2022-11-19T05:45:36.832Z,8.20
2022-11-19T05:48:08.631Z,8.12
2022-11-19T05:50:36.966Z,7.99
2022-11-19T05:53:13.063Z,7.96
2022-11-19T05:55:41.178Z,7.89
2022-11-19T05:58:15.241Z,7.73
2022-11-19T06:00:43.920Z,7.71
2022-11-19T06:03:14.381Z,7.62
2022-11-19T06:05:45.919Z,7.55
2022-11-19T06:08:17.119Z,7.57
2022-11-19T06:10:45.433Z,7.53
2022-11-19T06:13:19.446Z,7.40
2022-11-19T06:15:47.672Z,7.32
2022-11-19T06:18:16.493Z,7.27
2022-11-19T06:20:44.646Z,7.17
2022-11-19T06:23:12.771Z,7.14
2022-11-19T06:25:43.759Z,7.13
2022-11-19T06:28:11.940Z,7.07
2022-11-19T06:30:40.228Z,7.10
2022-11-19T06:33:13.513Z,7.04
2022-11-19T06:35:41.717Z,6.95
2022-11-19T06:38:12.495Z,6.82
2022-11-19T06:40:43.182Z,6.78
2022-11-19T06:43:14.998Z,6.72
2022-11-19T06:45:48.609Z,6.69
2022-11-19T06:48:17.442Z,6.71
2022-11-19T06:50:46.322Z,6.66
2022-11-19T06:53:14.566Z,6.58
2022-11-19T06:55:44.163Z,6.55
2022-11-19T06:58:16.224Z,6.49
2022-11-19T07:00:47.103Z,6.55
2022-11-19T07:03:19.905Z,6.48
2022-11-19T07:05:48.499Z,6.51
2022-11-19T07:08:16.949Z,6.41
2022-11-19T07:10:46.490Z,6.29
2022-11-19T07:13:14.903Z,6.12
2022-11-19T07:15:43.194Z,6.10
2022-11-19T07:18:11.806Z,6.04
2022-11-19T07:20:39.956Z,6.00
2022-11-19T07:23:12.619Z,5.95
2022-11-19T07:25:40.935Z,5.84
2022-11-19T07:28:10.973Z,5.87
2022-11-19T07:30:42.708Z,5.82
2022-11-19T07:33:16.692Z,5.76
2022-11-19T07:35:44.921Z,5.72
2022-11-19T07:38:13.165Z,5.62
2022-11-19T07:40:41.305Z,5.54
2022-11-19T07:43:10.024Z,5.52
2022-11-19T07:45:39.220Z,5.48
2022-11-19T07:48:07.885Z,5.41
2022-11-19T07:50:40.993Z,5.38
2022-11-19T07:53:09.655Z,5.35
2022-11-19T07:55:38.584Z,5.38
2022-11-19T07:58:06.733Z,5.40
2022-11-19T08:00:37.423Z,5.31
2022-11-19T08:03:11.714Z,5.31
2022-11-19T08:05:41.730Z,5.31
2022-11-19T08:08:12.563Z,5.32
2022-11-19T08:10:40.789Z,5.35
2022-11-19T08:13:08.876Z,5.37
2022-11-19T08:15:49.154Z,5.36
2022-11-19T08:18:17.314Z,5.39
2022-11-19T08:20:48.354Z,5.40
2022-11-19T08:23:16.621Z,5.38
2022-11-19T08:25:48.273Z,5.34
2022-11-19T08:28:18.339Z,5.41
2022-11-19T08:30:47.949Z,5.31
2022-11-19T08:33:16.165Z,5.27
2022-11-19T08:35:49.217Z,5.22
2022-11-19T08:38:17.457Z,5.21
2022-11-19T08:41:14.750Z,5.22
2022-11-19T08:43:42.110Z,5.30
2022-11-19T08:46:12.294Z,5.20
2022-11-19T08:48:43.357Z,5.11
2022-11-19T08:51:14.790Z,5.06
2022-11-19T08:53:43.741Z,4.94
2022-11-19T08:56:18.042Z,4.96
2022-11-19T08:58:46.717Z,4.95
2022-11-19T09:01:21.299Z,4.94
2022-11-19T09:03:52.861Z,4.92
2022-11-19T09:06:21.187Z,4.90
2022-11-19T09:08:49.359Z,4.87
2022-11-19T09:11:21.702Z,4.90
2022-11-19T09:13:49.972Z,4.91
2022-11-19T09:16:20.040Z,4.93
2022-11-19T09:18:48.680Z,4.89
2022-11-19T09:21:18.392Z,4.92
2022-11-19T09:23:48.195Z,4.86
2022-11-19T09:26:20.296Z,4.80
2022-11-19T09:28:49.433Z,4.84
2022-11-19T09:31:21.086Z,4.74
2022-11-19T09:33:50.946Z,4.71
2022-11-19T09:36:20.315Z,4.74
2022-11-19T09:38:48.968Z,4.74
2022-11-19T09:41:32.908Z,4.65
2022-11-19T09:44:13.093Z,4.67
2022-11-19T09:46:57.847Z,4.68
2022-11-19T09:49:32.120Z,4.61
2022-11-19T09:52:08.514Z,4.67
2022-11-19T09:54:45.416Z,4.63
2022-11-19T09:57:18.236Z,4.71
2022-11-19T09:59:53.024Z,4.63
2022-11-19T10:02:24.860Z,4.59
2022-11-19T10:04:53.986Z,4.43
2022-11-19T10:07:30.415Z,4.49
2022-11-19T10:10:12.295Z,4.57
2022-11-19T10:13:11.763Z,4.60
2022-11-19T10:15:57.119Z,4.67
2022-11-19T10:18:37.281Z,4.80
2022-11-19T10:21:11.972Z,4.75
2022-11-19T10:23:49.486Z,4.59
2022-11-19T10:26:19.573Z,4.60
2022-11-19T10:28:55.430Z,4.61
2022-11-19T10:31:30.807Z,4.60
2022-11-19T10:34:07.299Z,4.46
2022-11-19T10:36:42.349Z,4.54
2022-11-19T10:39:19.390Z,4.56
2022-11-19T10:41:53.227Z,4.53
2022-11-19T10:44:39.998Z,4.53
2022-11-19T10:47:15.185Z,4.54
2022-11-19T10:49:45.731Z,4.49
2022-11-19T10:52:24.871Z,4.46
2022-11-19T10:54:59.147Z,4.51
2022-11-19T10:57:30.688Z,4.38
2022-11-19T10:59:59.250Z,4.50
2022-11-19T11:02:33.434Z,4.53
2022-11-19T11:05:12.204Z,4.35
2022-11-19T11:07:55.149Z,4.31
2022-11-19T11:10:44.203Z,4.23
2022-11-19T11:13:36.977Z,4.26
2022-11-19T11:16:08.395Z,4.35
2022-11-19T11:18:40.728Z,4.46
2022-11-19T11:21:22.255Z,4.42
2022-11-19T11:23:54.514Z,4.36
2022-11-19T11:26:24.972Z,4.36
2022-11-19T11:29:00.286Z,4.43
2022-11-19T11:31:34.315Z,4.42
2022-11-19T11:34:04.113Z,4.30
2022-11-19T11:36:36.722Z,4.32
2022-11-19T11:39:06.630Z,4.35
2022-11-19T11:42:05.420Z,4.32
2022-11-19T11:44:30.122Z,4.29
2022-11-19T11:47:01.794Z,4.23
2022-11-19T11:49:36.187Z,4.37
2022-11-19T11:52:19.899Z,4.34
2022-11-19T11:54:59.937Z,4.27
2022-11-19T11:57:30.859Z,4.19
2022-11-19T11:59:59.092Z,4.26
2022-11-19T12:02:30.966Z,4.30
2022-11-19T12:05:02.545Z,4.18
2022-11-19T12:08:03.801Z,4.18
2022-11-19T12:10:44.259Z,4.01
2022-11-19T12:13:30.953Z,3.99
2022-11-19T12:16:08.149Z,4.08
2022-11-19T12:18:43.801Z,4.18
2022-11-19T12:21:14.586Z,4.09
2022-11-19T12:24:02.475Z,4.16
2022-11-19T12:26:40.002Z,4.12
2022-11-19T12:29:19.477Z,4.15
2022-11-19T12:32:12.634Z,4.10
2022-11-19T12:35:09.775Z,4.09
2022-11-19T12:38:07.670Z,4.14
2022-11-19T12:40:47.131Z,4.07
2022-11-19T12:43:30.032Z,4.04
2022-11-19T12:46:08.509Z,4.06
2022-11-19T12:49:02.800Z,4.12
2022-11-19T12:51:44.529Z,4.07
2022-11-19T12:54:35.621Z,4.07
2022-11-19T12:57:21.075Z,4.16
2022-11-19T13:00:10.380Z,4.12
2022-11-19T13:02:46.776Z,4.07
2022-11-19T13:05:18.700Z,4.17
2022-11-19T13:07:53.506Z,4.19
2022-11-19T13:10:25.954Z,4.17
2022-11-19T13:12:58.084Z,4.05
2022-11-19T13:15:31.234Z,4.07
2022-11-19T13:18:03.381Z,4.05
2022-11-19T13:20:41.692Z,4.09
2022-11-19T13:23:16.500Z,3.98
2022-11-19T13:25:51.474Z,3.88
2022-11-19T13:28:26.780Z,3.83
2022-11-19T13:30:59.493Z,3.95
2022-11-19T13:33:31.831Z,4.03
2022-11-19T13:36:05.466Z,4.10
2022-11-19T13:38:44.642Z,4.16
2022-11-19T13:41:17.514Z,4.12
2022-11-19T13:44:05.113Z,4.10
2022-11-19T13:46:38.821Z,4.10
2022-11-19T13:49:13.980Z,4.07
2022-11-19T13:51:46.782Z,4.16
2022-11-19T13:54:25.082Z,4.19
2022-11-19T13:56:56.920Z,4.24
2022-11-19T13:59:30.275Z,4.28
2022-11-19T14:02:40.829Z,4.19
2022-11-19T14:05:36.373Z,4.15
2022-11-19T14:08:24.857Z,4.26
2022-11-19T14:11:08.014Z,4.19
2022-11-19T14:13:51.963Z,4.18
2022-11-19T14:16:47.053Z,4.16
2022-11-19T14:19:35.269Z,4.07
2022-11-19T14:22:51.781Z,4.06
2022-11-19T14:26:00.811Z,4.12
2022-11-19T14:28:42.920Z,4.04
2022-11-19T14:31:11.701Z,4.09
2022-11-19T14:33:58.722Z,4.04
2022-11-19T14:36:38.822Z,4.02
2022-11-19T14:39:17.685Z,3.97
2022-11-19T14:41:46.380Z,4.03
2022-11-19T14:44:33.727Z,4.01
2022-11-19T14:47:33.753Z,3.88
2022-11-19T14:50:07.638Z,3.92
2022-11-19T14:52:39.872Z,3.97
2022-11-19T14:55:21.831Z,4.02
2022-11-19T14:57:58.030Z,4.00
2022-11-19T15:00:33.286Z,4.00
2022-11-19T15:03:03.728Z,4.05
2022-11-19T15:05:34.995Z,4.02
2022-11-19T15:08:44.190Z,4.05
2022-11-19T15:11:14.161Z,4.02
2022-11-19T15:13:44.566Z,4.02
2022-11-19T15:16:16.026Z,4.00
2022-11-19T15:19:19.235Z,4.01
2022-11-19T15:22:23.284Z,3.86
2022-11-19T15:25:18.430Z,3.95
2022-11-19T15:27:59.524Z,3.89
2022-11-19T15:30:39.302Z,3.93
2022-11-19T15:33:28.014Z,3.93
2022-11-19T15:36:12.431Z,3.91
2022-11-19T15:38:46.166Z,3.88
2022-11-19T15:41:19.668Z,3.92
2022-11-19T15:43:51.964Z,3.90
2022-11-19T15:46:29.985Z,3.88
2022-11-19T15:49:05.173Z,3.82
2022-11-19T15:51:40.968Z,3.79
2022-11-19T15:54:13.650Z,3.82
2022-11-19T15:56:48.279Z,3.82
2022-11-19T15:59:20.200Z,3.74
2022-11-19T16:01:59.487Z,3.86
2022-11-19T16:04:33.099Z,3.86
2022-11-19T16:07:02.301Z,3.84
2022-11-19T16:09:32.455Z,3.83
2022-11-19T16:12:18.005Z,3.75
2022-11-19T16:15:08.607Z,3.71
2022-11-19T16:17:43.873Z,3.74
2022-11-19T16:20:21.980Z,3.75
2022-11-19T16:22:58.592Z,3.79
2022-11-19T16:25:34.258Z,3.90
2022-11-19T16:28:06.917Z,3.89
2022-11-19T16:30:44.089Z,3.86
2022-11-19T16:33:17.985Z,3.84
2022-11-19T16:35:52.402Z,3.84
2022-11-19T16:38:26.928Z,3.83
2022-11-19T16:41:14.976Z,3.73
2022-11-19T16:43:47.105Z,3.71
2022-11-19T16:46:18.545Z,3.62
2022-11-19T16:48:58.304Z,3.72
2022-11-19T16:51:33.819Z,3.75
2022-11-19T16:54:03.029Z,3.72
2022-11-19T16:56:43.704Z,3.83
2022-11-19T16:59:19.718Z,3.70
2022-11-19T17:01:54.464Z,3.71
2022-11-19T17:04:25.191Z,3.71
2022-11-19T17:06:53.614Z,3.67
2022-11-19T17:09:33.100Z,3.61
2022-11-19T17:12:21.039Z,3.63
2022-11-19T17:14:52.511Z,3.62
2022-11-19T17:17:41.508Z,3.63
2022-11-19T17:20:50.175Z,3.67
2022-11-19T17:23:20.186Z,3.77
2022-11-19T17:25:50.683Z,3.73
2022-11-19T17:28:24.024Z,3.68
2022-11-19T17:30:52.432Z,3.68
2022-11-19T17:33:22.914Z,3.67
2022-11-19T17:35:52.061Z,3.70
2022-11-19T17:38:23.895Z,3.68
2022-11-19T17:40:54.443Z,3.75
2022-11-19T17:43:43.653Z,3.78
2022-11-19T17:46:11.906Z,3.56
2022-11-19T17:48:42.380Z,3.59
2022-11-19T17:51:12.856Z,3.56
2022-11-19T17:53:41.167Z,3.55
2022-11-19T17:56:17.413Z,3.57
2022-11-19T17:58:47.285Z,3.61
2022-11-19T18:01:16.059Z,3.61
2022-11-19T18:03:44.862Z,3.61
2022-11-19T18:06:14.040Z,3.56
2022-11-19T18:08:43.150Z,3.47
2022-11-19T18:11:13.755Z,3.42
2022-11-19T18:13:44.004Z,3.32
2022-11-19T18:16:16.749Z,3.40
2022-11-19T18:18:45.097Z,3.36
2022-11-19T18:21:15.675Z,3.39
2022-11-19T18:23:46.160Z,3.36
2022-11-19T18:26:16.277Z,3.29
2022-11-19T18:28:48.759Z,3.20
2022-11-19T18:31:21.452Z,3.24
2022-11-19T18:33:50.915Z,3.24
2022-11-19T18:36:19.554Z,3.25
2022-11-19T18:38:48.232Z,3.32
2022-11-19T18:41:18.948Z,3.32
2022-11-19T18:44:05.294Z,3.35
2022-11-19T18:46:35.283Z,3.29
2022-11-19T18:49:04.394Z,3.29
2022-11-19T18:51:35.046Z,3.40
2022-11-19T18:54:03.329Z,3.29
2022-11-19T18:56:33.382Z,3.36
2022-11-19T18:59:04.694Z,3.32
2022-11-19T19:01:35.549Z,3.28
2022-11-19T19:04:03.832Z,3.26
2022-11-19T19:06:34.372Z,3.19
2022-11-19T19:09:02.651Z,3.20
2022-11-19T19:11:49.674Z,3.25
2022-11-19T19:14:17.996Z,3.32
2022-11-19T19:16:47.560Z,3.24
2022-11-19T19:19:17.268Z,3.16
2022-11-19T19:21:45.502Z,3.12
2022-11-19T19:24:13.873Z,3.17
2022-11-19T19:26:42.699Z,3.14
2022-11-19T19:29:11.175Z,3.19
2022-11-19T19:31:42.446Z,3.18
2022-11-19T19:34:12.043Z,3.16
2022-11-19T19:36:40.293Z,3.11
2022-11-19T19:39:08.722Z,3.17
2022-11-19T19:41:37.027Z,3.20
2022-11-19T19:44:07.711Z,3.35
2022-11-19T19:46:35.903Z,3.41
2022-11-19T19:49:04.421Z,3.41
2022-11-19T19:51:34.972Z,3.36
2022-11-19T19:54:03.180Z,3.33
2022-11-19T19:56:34.648Z,3.34
2022-11-19T19:59:03.286Z,3.45
2022-11-19T20:01:33.765Z,3.28
2022-11-19T20:04:08.004Z,3.24
2022-11-19T20:06:41.457Z,3.33
2022-11-19T20:09:09.858Z,3.33
2022-11-19T20:11:38.709Z,3.39
2022-11-19T20:14:08.430Z,3.40
2022-11-19T20:16:40.577Z,3.29
2022-11-19T20:19:11.535Z,3.44
2022-11-19T20:21:42.266Z,3.45
2022-11-19T20:24:12.823Z,3.49
2022-11-19T20:26:43.204Z,3.45
2022-11-19T20:29:13.280Z,3.45
2022-11-19T20:31:42.275Z,3.54
2022-11-19T20:34:12.875Z,3.60
2022-11-19T20:36:42.483Z,3.58
2022-11-19T20:39:10.681Z,3.60
2022-11-19T20:41:56.193Z,3.62
2022-11-19T20:44:24.421Z,3.56
2022-11-19T20:46:55.627Z,3.63
2022-11-19T20:49:25.871Z,3.71
2022-11-19T20:51:56.372Z,3.70
2022-11-19T20:54:26.100Z,3.63
2022-11-19T20:56:56.586Z,3.57
2022-11-19T20:59:26.391Z,3.58
2022-11-19T21:01:55.679Z,3.55
2022-11-19T21:04:25.421Z,3.60
2022-11-19T21:06:55.115Z,3.69
2022-11-19T21:09:23.618Z,3.67
2022-11-19T21:11:52.311Z,3.60
2022-11-19T21:14:20.544Z,3.71
2022-11-19T21:16:48.738Z,3.62
2022-11-19T21:19:16.947Z,3.60
2022-11-19T21:21:45.646Z,3.68
2022-11-19T21:24:15.413Z,3.73
2022-11-19T21:26:43.791Z,3.63
2022-11-19T21:29:12.616Z,3.63
2022-11-19T21:31:42.216Z,3.60
2022-11-19T21:34:12.420Z,3.60
2022-11-19T21:36:41.849Z,3.59
2022-11-19T21:39:11.256Z,3.52
2022-11-19T21:41:41.300Z,3.57
2022-11-19T21:44:09.918Z,3.49
2022-11-19T21:46:38.129Z,3.57
2022-11-19T21:49:08.293Z,3.58
2022-11-19T21:51:36.460Z,3.61
2022-11-19T21:54:05.873Z,3.65
2022-11-19T21:56:38.548Z,3.57
2022-11-19T21:59:09.353Z,3.58
2022-11-19T22:01:37.627Z,3.59
2022-11-19T22:04:07.561Z,3.54
2022-11-19T22:06:35.865Z,3.53
2022-11-19T22:09:04.157Z,3.57
2022-11-19T22:11:33.072Z,3.56
2022-11-19T22:14:03.660Z,3.59
2022-11-19T22:16:38.230Z,3.53
2022-11-19T22:19:07.593Z,3.45
2022-11-19T22:21:35.935Z,3.46
2022-11-19T22:24:04.336Z,3.45
2022-11-19T22:26:33.303Z,3.43
2022-11-19T22:29:01.571Z,3.44
2022-11-19T22:31:29.912Z,3.52
2022-11-19T22:34:01.037Z,3.49
2022-11-19T22:36:35.596Z,3.50
2022-11-19T22:39:07.488Z,3.52
2022-11-19T22:41:36.106Z,3.54
2022-11-19T22:44:05.238Z,3.43
2022-11-19T22:46:33.517Z,3.32
2022-11-19T22:49:03.082Z,3.32
2022-11-19T22:51:31.770Z,3.32
2022-11-19T22:54:00.063Z,3.40
2022-11-19T22:56:29.971Z,3.41
2022-11-19T22:58:59.031Z,3.48
2022-11-19T23:01:29.560Z,3.48
2022-11-19T23:03:59.664Z,3.48
2022-11-19T23:06:29.326Z,3.35
2022-11-19T23:08:57.757Z,3.32
2022-11-19T23:11:44.554Z,3.36
2022-11-19T23:14:14.420Z,3.41
2022-11-19T23:16:43.547Z,3.49
2022-11-19T23:19:13.777Z,3.42
2022-11-19T23:21:44.498Z,3.50
2022-11-19T23:24:12.856Z,3.49
2022-11-19T23:26:41.084Z,3.53
2022-11-19T23:29:09.551Z,3.52
2022-11-19T23:31:40.065Z,3.42
2022-11-19T23:34:08.298Z,3.44
2022-11-19T23:36:40.342Z,3.43
2022-11-19T23:39:15.718Z,3.50
2022-11-19T23:41:44.473Z,3.44
2022-11-19T23:44:12.774Z,3.40
2022-11-19T23:46:41.227Z,3.35
2022-11-19T23:49:10.137Z,3.39
2022-11-19T23:51:40.104Z,3.41
2022-11-19T23:54:08.354Z,3.48
2022-11-19T23:56:37.948Z,3.43
2022-11-19T23:59:07.901Z,3.44
